createdAt,value
2022-09-25T00:01:11.974Z,13.90
2022-09-25T00:03:40.298Z,13.90
2022-09-25T00:06:10.301Z,13.90
2022-09-25T00:08:38.397Z,13.80
2022-09-25T00:11:08.533Z,13.80
2022-09-25T00:13:36.752Z,13.80
2022-09-25T00:16:06.354Z,13.80
2022-09-25T00:18:51.981Z,13.80
2022-09-25T00:21:20.108Z,13.80
2022-09-25T00:23:48.208Z,13.80
2022-09-25T00:26:17.877Z,13.80
2022-09-25T00:28:45.669Z,13.70
2022-09-25T00:31:23.297Z,13.70
2022-09-25T00:33:51.544Z,13.70
2022-09-25T00:36:19.620Z,13.70
2022-09-25T00:38:48.841Z,13.70
2022-09-25T00:41:18.430Z,13.70
2022-09-25T00:43:50.570Z,13.70
2022-09-25T00:46:23.247Z,13.80
2022-09-25T00:48:56.141Z,13.70
2022-09-25T00:51:28.144Z,13.70
2022-09-25T00:53:57.906Z,13.70
2022-09-25T00:56:27.020Z,13.70
2022-09-25T00:58:54.939Z,13.70
2022-09-25T01:01:24.255Z,13.70
2022-09-25T01:03:52.125Z,13.70
2022-09-25T01:06:20.547Z,13.70
2022-09-25T01:08:48.548Z,13.70
2022-09-25T01:11:17.690Z,13.80
2022-09-25T01:13:45.808Z,13.60
2022-09-25T01:16:19.437Z,13.70
2022-09-25T01:19:03.947Z,13.70
2022-09-25T01:21:39.830Z,13.70
2022-09-25T01:24:42.630Z,13.70
2022-09-25T01:27:20.876Z,13.70
2022-09-25T01:29:58.761Z,13.70
2022-09-25T01:32:34.719Z,13.60
2022-09-25T01:35:08.809Z,13.60
2022-09-25T01:37:43.650Z,13.70
2022-09-25T01:40:18.011Z,13.60
2022-09-25T01:42:52.602Z,13.70
2022-09-25T01:45:24.878Z,13.50
2022-09-25T01:47:53.360Z,13.60
2022-09-25T01:50:27.609Z,13.50
2022-09-25T01:53:00.822Z,13.60
2022-09-25T01:55:35.977Z,13.50
2022-09-25T01:58:10.337Z,13.50
2022-09-25T02:00:42.457Z,13.40
2022-09-25T02:03:15.873Z,13.50
2022-09-25T02:05:47.701Z,13.50
2022-09-25T02:08:22.212Z,13.50
2022-09-25T02:10:55.869Z,13.40
2022-09-25T02:13:27.518Z,13.50
2022-09-25T02:15:59.852Z,13.40
2022-09-25T02:18:47.153Z,13.50
2022-09-25T02:21:21.818Z,13.40
2022-09-25T02:23:53.883Z,13.40
2022-09-25T02:26:27.538Z,13.40
2022-09-25T02:28:56.415Z,13.40
2022-09-25T02:31:30.994Z,13.40
2022-09-25T02:33:59.416Z,13.40
2022-09-25T02:36:27.294Z,13.40
2022-09-25T02:38:57.176Z,13.40
2022-09-25T02:41:35.999Z,13.40
2022-09-25T02:44:11.448Z,13.40
2022-09-25T02:46:50.336Z,13.40
2022-09-25T02:49:25.404Z,13.40
2022-09-25T02:52:00.511Z,13.40
2022-09-25T02:54:33.838Z,13.40
2022-09-25T02:57:09.997Z,13.30
2022-09-25T02:59:41.957Z,13.30
2022-09-25T03:02:13.022Z,13.30
2022-09-25T03:04:43.050Z,13.40
2022-09-25T03:07:10.952Z,13.40
2022-09-25T03:09:42.966Z,13.40
2022-09-25T03:12:10.777Z,13.30
2022-09-25T03:14:38.570Z,13.30
2022-09-25T03:17:09.493Z,13.40
2022-09-25T03:19:38.947Z,13.40
2022-09-25T03:22:06.746Z,13.40
2022-09-25T03:24:34.538Z,13.30
2022-09-25T03:27:02.296Z,13.40
2022-09-25T03:29:31.081Z,13.40
2022-09-25T03:31:58.901Z,13.30
2022-09-25T03:34:26.706Z,13.30
2022-09-25T03:36:55.790Z,13.20
2022-09-25T03:39:23.684Z,13.20
2022-09-25T03:41:51.478Z,13.20
2022-09-25T03:44:19.245Z,13.20
2022-09-25T03:46:47.021Z,13.20
2022-09-25T03:49:14.820Z,13.20
2022-09-25T03:51:43.051Z,13.20
2022-09-25T03:54:12.338Z,13.10
2022-09-25T03:56:40.361Z,13.20
2022-09-25T03:59:08.152Z,13.20
2022-09-25T04:01:36.974Z,13.20
2022-09-25T04:04:04.884Z,13.20
2022-09-25T04:06:32.921Z,13.10
2022-09-25T04:09:00.735Z,13.20
2022-09-25T04:11:29.833Z,13.20
2022-09-25T04:13:58.053Z,13.20
2022-09-25T04:16:25.982Z,13.20
2022-09-25T04:18:53.812Z,13.10
2022-09-25T04:21:21.830Z,13.10
2022-09-25T04:24:03.652Z,13.10
2022-09-25T04:26:33.324Z,13.10
2022-09-25T04:29:02.042Z,13.10
2022-09-25T04:31:30.093Z,13.20
2022-09-25T04:33:56.981Z,13.10
2022-09-25T04:36:24.929Z,13.10
2022-09-25T04:38:52.724Z,13.10
2022-09-25T04:41:20.641Z,13.20
2022-09-25T04:43:49.786Z,13.20
2022-09-25T04:46:22.206Z,13.10
2022-09-25T04:48:51.384Z,13.20
2022-09-25T04:51:19.208Z,13.20
2022-09-25T04:53:47.268Z,13.20
2022-09-25T04:56:16.572Z,13.20
2022-09-25T04:58:46.173Z,13.20
2022-09-25T05:01:15.429Z,13.20
2022-09-25T05:03:43.844Z,13.20
2022-09-25T05:06:11.681Z,13.20
2022-09-25T05:08:39.451Z,13.20
2022-09-25T05:11:07.885Z,13.20
2022-09-25T05:13:35.738Z,13.20
2022-09-25T05:16:03.590Z,13.20
2022-09-25T05:18:32.926Z,13.30
2022-09-25T05:21:04.914Z,13.10
2022-09-25T05:23:32.763Z,13.20
2022-09-25T05:26:01.999Z,13.20
2022-09-25T05:28:29.843Z,13.10
2022-09-25T05:31:00.021Z,13.20
2022-09-25T05:33:27.884Z,13.20
2022-09-25T05:36:00.867Z,13.10
2022-09-25T05:38:29.004Z,13.10
2022-09-25T05:40:57.052Z,13.10
2022-09-25T05:43:25.401Z,13.10
2022-09-25T05:45:56.451Z,13.10
2022-09-25T05:48:24.383Z,13.10
2022-09-25T05:50:53.138Z,13.00
2022-09-25T05:53:22.376Z,13.10
2022-09-25T05:55:51.479Z,13.00
2022-09-25T05:58:20.873Z,13.00
2022-09-25T06:00:49.448Z,13.00
2022-09-25T06:03:17.856Z,13.10
2022-09-25T06:05:46.202Z,13.00
2022-09-25T06:08:14.861Z,13.10
2022-09-25T06:10:44.048Z,13.00
2022-09-25T06:13:11.823Z,13.00
2022-09-25T06:15:42.014Z,13.00
2022-09-25T06:18:10.398Z,13.00
2022-09-25T06:20:38.202Z,13.00
2022-09-25T06:23:05.985Z,13.00
2022-09-25T06:25:33.882Z,13.10
2022-09-25T06:28:04.062Z,13.10
2022-09-25T06:30:35.110Z,13.10
2022-09-25T06:33:04.906Z,13.10
2022-09-25T06:35:32.690Z,13.10
2022-09-25T06:38:01.514Z,13.10
2022-09-25T06:40:31.450Z,13.00
2022-09-25T06:43:00.137Z,13.10
2022-09-25T06:45:32.422Z,13.10
2022-09-25T06:48:04.152Z,13.10
2022-09-25T06:50:38.881Z,13.10
2022-09-25T06:53:06.681Z,13.20
2022-09-25T06:55:34.975Z,13.10
2022-09-25T06:58:03.195Z,13.20
2022-09-25T07:00:32.462Z,13.20
2022-09-25T07:03:18.697Z,13.20
2022-09-25T07:05:48.151Z,13.20
2022-09-25T07:08:17.527Z,13.30
2022-09-25T07:10:49.860Z,13.20
2022-09-25T07:13:17.742Z,13.20
2022-09-25T07:15:52.046Z,13.20
2022-09-25T07:18:19.891Z,13.30
2022-09-25T07:20:47.693Z,13.30
2022-09-25T07:23:15.558Z,13.40
2022-09-25T07:25:43.595Z,13.40
2022-09-25T07:28:12.886Z,13.40
2022-09-25T07:30:40.975Z,13.50
2022-09-25T07:33:10.816Z,13.50
2022-09-25T07:35:39.766Z,13.60
2022-09-25T07:38:07.532Z,13.60
2022-09-25T07:40:35.588Z,13.60
2022-09-25T07:43:03.804Z,13.70
2022-09-25T07:45:32.289Z,13.70
2022-09-25T07:48:01.200Z,13.70
2022-09-25T07:50:30.993Z,13.70
2022-09-25T07:52:59.228Z,13.80
2022-09-25T07:55:29.228Z,13.80
2022-09-25T07:57:58.593Z,13.80
2022-09-25T08:00:26.597Z,13.80
2022-09-25T08:02:58.834Z,13.70
2022-09-25T08:05:27.372Z,13.70
2022-09-25T08:07:56.604Z,13.80
2022-09-25T08:10:24.454Z,13.70
2022-09-25T08:12:52.478Z,13.80
2022-09-25T08:15:20.481Z,13.80
2022-09-25T08:17:48.362Z,13.90
2022-09-25T08:20:16.399Z,14.00
2022-09-25T08:22:44.201Z,13.90
2022-09-25T08:25:13.353Z,13.90
2022-09-25T08:27:41.478Z,13.90
2022-09-25T08:30:11.430Z,14.00
2022-09-25T08:32:39.321Z,14.00
2022-09-25T08:35:08.173Z,14.00
2022-09-25T08:37:35.965Z,14.10
2022-09-25T08:40:03.874Z,14.10
2022-09-25T08:42:38.127Z,14.10
2022-09-25T08:45:30.848Z,14.20
2022-09-25T08:48:16.418Z,14.10
2022-09-25T08:50:44.252Z,14.10
2022-09-25T08:53:17.422Z,14.10
2022-09-25T08:56:17.078Z,14.10
2022-09-25T08:58:51.593Z,14.10
2022-09-25T09:01:23.503Z,14.10
2022-09-25T09:03:58.606Z,14.10
2022-09-25T09:06:29.038Z,14.10
2022-09-25T09:09:03.252Z,14.00
2022-09-25T09:11:36.966Z,14.10
2022-09-25T09:14:07.900Z,14.00
2022-09-25T09:16:42.632Z,14.00
2022-09-25T09:19:12.561Z,14.00
2022-09-25T09:21:46.036Z,14.00
2022-09-25T09:24:17.940Z,14.00
2022-09-25T09:27:12.751Z,14.00
2022-09-25T09:29:57.138Z,14.10
2022-09-25T09:32:39.499Z,14.00
2022-09-25T09:35:18.704Z,14.00
2022-09-25T09:37:59.648Z,14.10
2022-09-25T09:40:39.299Z,14.10
2022-09-25T09:43:15.803Z,14.10
2022-09-25T09:45:50.415Z,14.20
2022-09-25T09:48:26.932Z,14.20
2022-09-25T09:51:02.499Z,14.30
2022-09-25T09:53:35.353Z,14.30
2022-09-25T09:56:09.255Z,14.30
2022-09-25T09:58:46.538Z,14.30
2022-09-25T10:01:37.007Z,14.30
2022-09-25T10:04:10.523Z,14.30
2022-09-25T10:06:40.990Z,14.40
2022-09-25T10:09:15.068Z,14.40
2022-09-25T10:11:45.615Z,14.40
2022-09-25T10:14:21.185Z,14.30
2022-09-25T10:16:52.443Z,14.60
2022-09-25T10:19:23.571Z,14.50
2022-09-25T10:21:54.849Z,14.50
2022-09-25T10:24:49.745Z,14.50
2022-09-25T10:27:29.877Z,14.50
2022-09-25T10:30:07.733Z,14.50
2022-09-25T10:32:44.275Z,14.50
2022-09-25T10:35:16.914Z,14.60
2022-09-25T10:37:44.997Z,14.60
2022-09-25T10:40:26.944Z,14.60
2022-09-25T10:43:07.401Z,14.60
2022-09-25T10:45:45.458Z,14.60
2022-09-25T10:49:13.228Z,14.60
2022-09-25T10:52:39.012Z,14.60
2022-09-25T10:55:16.479Z,14.70
2022-09-25T10:57:46.296Z,14.80
2022-09-25T11:00:24.099Z,14.80
2022-09-25T11:02:54.770Z,14.80
2022-09-25T11:08:19.471Z,14.90
2022-09-25T11:10:58.000Z,14.90
2022-09-25T11:13:28.592Z,14.90
2022-09-25T11:15:59.980Z,14.90
2022-09-25T11:18:40.668Z,15.10
2022-09-25T11:21:22.893Z,15.00
2022-09-25T11:24:11.141Z,15.10
2022-09-25T11:26:48.408Z,15.00
2022-09-25T11:29:23.594Z,15.10
2022-09-25T11:31:57.807Z,15.30
2022-09-25T11:34:37.715Z,15.10
2022-09-25T11:37:18.606Z,15.10
2022-09-25T11:40:08.518Z,15.10
2022-09-25T11:42:42.634Z,15.10
2022-09-25T11:45:19.265Z,15.00
2022-09-25T11:47:53.622Z,15.10
2022-09-25T11:50:27.912Z,15.10
2022-09-25T11:53:07.283Z,15.10
2022-09-25T11:56:13.232Z,15.20
2022-09-25T11:59:00.764Z,15.20
2022-09-25T12:01:35.963Z,15.20
2022-09-25T12:04:32.573Z,15.20
2022-09-25T12:07:18.221Z,15.20
2022-09-25T12:10:07.235Z,15.20
2022-09-25T12:12:42.643Z,15.20
2022-09-25T12:15:20.317Z,15.20
2022-09-25T12:18:11.937Z,15.20
2022-09-25T12:20:48.690Z,15.20
2022-09-25T12:23:32.642Z,15.20
2022-09-25T12:26:20.702Z,15.40
2022-09-25T12:29:04.193Z,15.40
2022-09-25T12:31:46.065Z,15.40
2022-09-25T12:34:26.816Z,15.50
2022-09-25T12:37:00.026Z,15.50
2022-09-25T12:39:33.875Z,15.60
2022-09-25T12:42:10.681Z,15.70
2022-09-25T12:44:46.644Z,15.80
2022-09-25T12:47:22.102Z,15.90
2022-09-25T12:49:57.760Z,15.90
2022-09-25T12:52:30.571Z,15.90
2022-09-25T12:55:05.487Z,16.00
2022-09-25T12:57:40.230Z,15.90
2022-09-25T13:00:19.027Z,15.90
2022-09-25T13:02:53.606Z,15.90
2022-09-25T13:05:28.701Z,15.80
2022-09-25T13:08:03.603Z,15.80
2022-09-25T13:10:37.604Z,15.70
2022-09-25T13:13:14.565Z,15.60
2022-09-25T13:15:43.670Z,15.60
2022-09-25T13:18:17.873Z,15.60
2022-09-25T13:20:54.210Z,15.50
2022-09-25T13:23:32.673Z,15.40
2022-09-25T13:26:12.796Z,15.40
2022-09-25T13:28:51.862Z,15.30
2022-09-25T13:31:27.151Z,15.30
2022-09-25T13:34:12.150Z,15.30
2022-09-25T13:36:45.997Z,15.20
2022-09-25T13:39:43.568Z,15.30
2022-09-25T13:42:17.918Z,15.20
2022-09-25T13:45:06.141Z,15.20
2022-09-25T13:47:53.022Z,15.10
2022-09-25T13:50:29.365Z,15.10
2022-09-25T13:53:20.368Z,15.10
2022-09-25T13:56:19.684Z,15.00
2022-09-25T13:59:28.830Z,15.00
2022-09-25T14:02:22.759Z,15.00
2022-09-25T14:04:50.723Z,14.90
2022-09-25T14:07:22.838Z,15.10
2022-09-25T14:09:54.624Z,14.90
2022-09-25T14:12:42.556Z,14.90
2022-09-25T14:15:21.832Z,14.90
2022-09-25T14:17:52.827Z,14.80
2022-09-25T14:20:40.228Z,14.90
2022-09-25T14:23:14.614Z,14.80
2022-09-25T14:25:44.934Z,14.80
2022-09-25T14:28:22.207Z,14.80
2022-09-25T14:30:57.081Z,14.80
2022-09-25T14:33:51.789Z,14.80
2022-09-25T14:36:28.262Z,14.80
2022-09-25T14:39:08.152Z,14.80
2022-09-25T14:41:58.256Z,14.80
2022-09-25T14:45:06.232Z,14.80
2022-09-25T14:47:36.510Z,14.90
2022-09-25T14:50:07.475Z,14.90
2022-09-25T14:52:37.431Z,14.90
2022-09-25T14:55:06.598Z,14.90
2022-09-25T14:57:37.168Z,15.00
2022-09-25T15:00:07.996Z,15.00
2022-09-25T15:02:39.902Z,15.00
2022-09-25T15:05:28.882Z,15.10
2022-09-25T15:07:59.446Z,15.20
2022-09-25T15:10:30.690Z,15.60
2022-09-25T15:13:09.397Z,15.20
2022-09-25T15:15:39.439Z,15.30
2022-09-25T15:18:12.793Z,15.30
2022-09-25T15:20:48.809Z,15.40
2022-09-25T15:23:19.829Z,15.50
2022-09-25T15:25:50.938Z,15.70
2022-09-25T15:28:20.956Z,15.80
2022-09-25T15:30:56.721Z,15.80
2022-09-25T15:33:28.496Z,15.80
2022-09-25T15:35:59.620Z,15.70
2022-09-25T15:38:31.690Z,15.80
2022-09-25T15:41:00.458Z,15.70
2022-09-25T15:43:29.929Z,15.70
2022-09-25T15:45:59.403Z,15.60
2022-09-25T15:48:32.478Z,15.60
2022-09-25T15:51:04.859Z,15.50
2022-09-25T15:53:36.033Z,15.50
2022-09-25T15:56:17.397Z,15.50
2022-09-25T15:58:47.649Z,15.50
2022-09-25T16:01:37.044Z,15.60
2022-09-25T16:04:25.687Z,15.80
2022-09-25T16:06:55.379Z,15.80
2022-09-25T16:09:31.765Z,15.80
2022-09-25T16:12:23.163Z,15.80
2022-09-25T16:14:51.813Z,15.80
2022-09-25T16:17:25.821Z,15.80
2022-09-25T16:20:28.919Z,15.90
2022-09-25T16:23:00.872Z,15.90
2022-09-25T16:25:32.121Z,15.90
2022-09-25T16:28:06.240Z,15.80
2022-09-25T16:30:35.607Z,15.70
2022-09-25T16:33:09.254Z,15.60
2022-09-25T16:36:04.497Z,15.50
2022-09-25T16:38:30.168Z,15.50
2022-09-25T16:41:05.994Z,15.40
2022-09-25T16:43:36.202Z,15.40
2022-09-25T16:46:12.622Z,15.30
2022-09-25T16:48:41.333Z,15.30
2022-09-25T16:51:22.340Z,15.20
2022-09-25T16:53:52.355Z,15.10
2022-09-25T16:56:22.533Z,15.10
2022-09-25T16:58:50.666Z,15.20
2022-09-25T17:01:18.655Z,15.10
2022-09-25T17:03:52.727Z,15.00
2022-09-25T17:06:22.254Z,15.00
2022-09-25T17:08:51.946Z,14.90
2022-09-25T17:11:21.283Z,14.90
2022-09-25T17:13:49.906Z,14.90
2022-09-25T17:16:17.815Z,14.90
2022-09-25T17:18:45.609Z,14.80
2022-09-25T17:21:16.261Z,14.80
2022-09-25T17:23:44.701Z,14.80
2022-09-25T17:26:18.427Z,14.70
2022-09-25T17:28:46.339Z,14.80
2022-09-25T17:31:16.680Z,14.70
2022-09-25T17:33:45.053Z,14.90
2022-09-25T17:36:13.867Z,14.70
2022-09-25T17:38:41.690Z,14.60
2022-09-25T17:41:24.946Z,14.70
2022-09-25T17:43:52.736Z,14.60
2022-09-25T17:46:21.329Z,14.70
2022-09-25T17:48:54.226Z,14.60
2022-09-25T17:51:24.238Z,14.60
2022-09-25T17:53:52.684Z,14.60
2022-09-25T17:56:22.206Z,14.60
2022-09-25T17:58:51.098Z,14.60
2022-09-25T18:01:22.744Z,14.60
2022-09-25T18:03:50.715Z,14.60
2022-09-25T18:06:19.196Z,14.60
2022-09-25T18:08:46.996Z,14.60
2022-09-25T18:11:15.615Z,14.50
2022-09-25T18:13:45.318Z,14.50
2022-09-25T18:16:16.550Z,14.50
2022-09-25T18:19:02.454Z,14.50
2022-09-25T18:21:47.940Z,14.50
2022-09-25T18:24:15.891Z,14.50
2022-09-25T18:26:44.750Z,14.50
2022-09-25T18:29:16.794Z,14.40
2022-09-25T18:31:45.071Z,14.30
2022-09-25T18:34:13.118Z,14.40
2022-09-25T18:36:40.930Z,14.40
2022-09-25T18:39:08.882Z,14.40
2022-09-25T18:41:37.658Z,14.40
2022-09-25T18:44:06.969Z,14.40
2022-09-25T18:46:37.498Z,14.30
2022-09-25T18:49:05.921Z,14.30
2022-09-25T18:51:37.996Z,14.30
2022-09-25T18:54:05.875Z,14.30
2022-09-25T18:56:39.065Z,14.30
2022-09-25T18:59:10.673Z,14.30
2022-09-25T19:01:40.994Z,14.30
2022-09-25T19:04:09.909Z,14.40
2022-09-25T19:06:37.697Z,14.30
2022-09-25T19:09:05.586Z,14.40
2022-09-25T19:11:33.425Z,14.30
2022-09-25T19:14:04.637Z,14.20
2022-09-25T19:16:37.315Z,14.20
2022-09-25T19:19:07.674Z,14.30
2022-09-25T19:21:36.104Z,14.30
2022-09-25T19:24:04.568Z,14.30
2022-09-25T19:26:32.375Z,14.20
2022-09-25T19:29:01.487Z,14.30
2022-09-25T19:31:29.830Z,14.20
2022-09-25T19:33:57.987Z,14.20
2022-09-25T19:36:30.483Z,14.30
2022-09-25T19:38:58.782Z,14.30
2022-09-25T19:41:28.396Z,14.30
2022-09-25T19:43:57.964Z,14.30
2022-09-25T19:46:26.678Z,14.20
2022-09-25T19:48:54.598Z,14.20
2022-09-25T19:51:23.866Z,14.20
2022-09-25T19:53:53.602Z,14.20
2022-09-25T19:56:22.084Z,14.20
2022-09-25T19:58:50.897Z,14.30
2022-09-25T20:01:21.582Z,14.20
2022-09-25T20:03:49.902Z,14.20
2022-09-25T20:06:17.774Z,14.20
2022-09-25T20:08:45.769Z,14.20
2022-09-25T20:11:18.564Z,14.20
2022-09-25T20:13:47.857Z,14.20
2022-09-25T20:16:18.496Z,14.20
2022-09-25T20:18:49.043Z,14.20
2022-09-25T20:21:17.603Z,14.20
2022-09-25T20:23:45.667Z,14.10
2022-09-25T20:26:16.575Z,14.20
2022-09-25T20:28:45.320Z,14.30
2022-09-25T20:31:15.855Z,14.20
2022-09-25T20:33:43.995Z,14.20
2022-09-25T20:36:14.322Z,14.20
2022-09-25T20:38:42.801Z,14.20
2022-09-25T20:41:13.110Z,14.30
2022-09-25T20:43:44.123Z,14.20
2022-09-25T20:46:13.915Z,14.30
2022-09-25T20:48:45.532Z,14.20
2022-09-25T20:51:16.580Z,14.30
2022-09-25T20:53:44.837Z,14.20
2022-09-25T20:56:14.610Z,14.10
2022-09-25T20:58:49.434Z,14.20
2022-09-25T21:01:22.768Z,14.20
2022-09-25T21:03:52.018Z,14.20
2022-09-25T21:06:21.676Z,14.20
2022-09-25T21:08:52.921Z,14.10
2022-09-25T21:11:21.038Z,14.20
2022-09-25T21:13:52.726Z,14.20
2022-09-25T21:16:22.003Z,14.20
2022-09-25T21:18:53.410Z,14.10
2022-09-25T21:21:21.639Z,14.10
2022-09-25T21:23:51.588Z,14.00
2022-09-25T21:26:21.449Z,14.20
2022-09-25T21:28:53.501Z,14.10
2022-09-25T21:31:23.113Z,14.10
2022-09-25T21:33:52.873Z,14.20
2022-09-25T21:36:22.249Z,14.10
2022-09-25T21:38:50.568Z,14.10
2022-09-25T21:41:20.074Z,14.10
2022-09-25T21:43:48.518Z,14.00
2022-09-25T21:46:19.836Z,14.10
2022-09-25T21:48:49.814Z,14.00
2022-09-25T21:51:19.386Z,14.00
2022-09-25T21:53:47.705Z,14.00
2022-09-25T21:56:17.259Z,14.00
2022-09-25T21:58:45.775Z,14.00
2022-09-25T22:01:16.147Z,14.00
2022-09-25T22:03:48.145Z,14.00
2022-09-25T22:06:18.348Z,14.00
2022-09-25T22:08:50.100Z,14.00
2022-09-25T22:11:19.021Z,14.00
2022-09-25T22:13:48.525Z,13.90
2022-09-25T22:16:18.978Z,14.00
2022-09-25T22:18:50.213Z,13.90
2022-09-25T22:21:20.170Z,13.90
2022-09-25T22:23:48.610Z,14.00
2022-09-25T22:26:17.880Z,13.90
2022-09-25T22:28:46.093Z,13.90
2022-09-25T22:31:16.357Z,13.90
2022-09-25T22:33:44.965Z,13.90
2022-09-25T22:36:14.489Z,13.90
2022-09-25T22:38:42.474Z,13.90
2022-09-25T22:41:12.520Z,13.80
2022-09-25T22:43:40.904Z,13.90
2022-09-25T22:46:10.442Z,13.90
2022-09-25T22:48:39.071Z,13.80
2022-09-25T22:51:08.750Z,13.80
2022-09-25T22:53:38.050Z,13.80
2022-09-25T22:56:11.039Z,13.70
2022-09-25T22:58:39.163Z,13.70
2022-09-25T23:01:10.284Z,13.70
2022-09-25T23:03:38.158Z,13.70
2022-09-25T23:06:06.111Z,13.90
2022-09-25T23:08:34.291Z,13.70
2022-09-25T23:11:08.519Z,13.70
2022-09-25T23:13:37.191Z,13.70
2022-09-25T23:16:07.167Z,13.70
2022-09-25T23:18:35.910Z,13.70
2022-09-25T23:21:03.808Z,13.60
2022-09-25T23:23:31.650Z,13.60
2022-09-25T23:26:05.962Z,13.60
2022-09-25T23:28:34.997Z,13.60
2022-09-25T23:31:08.195Z,13.60
2022-09-25T23:33:36.485Z,13.60
2022-09-25T23:36:06.208Z,13.60
2022-09-25T23:38:34.249Z,13.60
2022-09-25T23:41:03.734Z,13.50
2022-09-25T23:43:31.590Z,13.50
2022-09-25T23:45:59.515Z,13.60
2022-09-25T23:48:27.396Z,13.60
2022-09-25T23:50:55.177Z,13.50
2022-09-25T23:53:23.006Z,13.60
2022-09-25T23:55:51.017Z,13.50
2022-09-25T23:58:20.376Z,13.60
